createdAt,value
2023-01-17T00:02:24.068Z,4.60
2023-01-17T00:05:09.493Z,2.80
2023-01-17T00:07:55.316Z,5.50
2023-01-17T00:10:25.393Z,5.40
2023-01-17T00:12:55.561Z,3.97
2023-01-17T00:15:23.924Z,7.07
2023-01-17T00:17:51.597Z,4.63
2023-01-17T00:20:45.916Z,5.38
2023-01-17T00:23:35.611Z,3.00
2023-01-17T00:26:09.731Z,6.57
2023-01-17T00:28:39.679Z,5.25
2023-01-17T00:31:08.180Z,4.75
2023-01-17T00:33:35.313Z,4.72
2023-01-17T00:36:03.140Z,4.30
2023-01-17T00:38:33.186Z,3.55
2023-01-17T00:41:08.439Z,5.95
2023-01-17T00:43:54.134Z,5.00
2023-01-17T00:46:39.634Z,3.50
2023-01-17T00:49:25.777Z,5.47
2023-01-17T00:52:11.586Z,3.75
2023-01-17T00:54:57.427Z,4.22
2023-01-17T00:57:43.072Z,6.03
2023-01-17T01:00:29.157Z,4.10
2023-01-17T01:03:14.976Z,9.75
2023-01-17T01:06:00.462Z,6.72
2023-01-17T01:08:48.173Z,6.82
2023-01-17T01:11:39.472Z,5.90
2023-01-17T01:14:28.515Z,4.50
2023-01-17T01:17:20.883Z,6.00
2023-01-17T01:20:06.517Z,9.82
2023-01-17T01:22:51.916Z,3.47
2023-01-17T01:25:37.517Z,5.20
2023-01-17T01:28:25.460Z,6.90
2023-01-17T01:31:11.076Z,2.40
2023-01-17T01:33:38.640Z,4.30
2023-01-17T01:36:08.243Z,8.35
2023-01-17T01:38:35.360Z,5.68
2023-01-17T01:41:03.124Z,5.18
2023-01-17T01:43:50.960Z,5.63
2023-01-17T01:46:24.068Z,4.10
2023-01-17T01:48:59.151Z,4.00
2023-01-17T01:51:32.011Z,5.88
2023-01-17T01:54:06.494Z,4.80
2023-01-17T01:56:34.371Z,4.78
2023-01-17T01:59:04.538Z,5.57
2023-01-17T02:01:32.690Z,5.25
2023-01-17T02:03:59.904Z,8.95
2023-01-17T02:06:35.240Z,5.05
2023-01-17T02:09:10.069Z,5.85
2023-01-17T02:11:39.068Z,7.78
2023-01-17T02:14:06.794Z,8.30
2023-01-17T02:17:07.783Z,4.28
2023-01-17T02:19:55.489Z,9.27
2023-01-17T02:23:07.109Z,5.05
2023-01-17T02:26:07.799Z,13.25
2023-01-17T02:29:19.434Z,9.25
2023-01-17T02:31:52.879Z,11.60
2023-01-17T02:34:28.851Z,9.10
2023-01-17T02:37:04.997Z,18.88
2023-01-17T02:39:44.278Z,16.67
2023-01-17T02:42:16.968Z,21.50
2023-01-17T02:44:45.302Z,20.02
2023-01-17T02:47:31.773Z,14.30
2023-01-17T02:50:05.772Z,22.30
2023-01-17T02:52:51.652Z,18.80
2023-01-17T02:55:39.432Z,15.77
2023-01-17T02:58:22.099Z,21.30
2023-01-17T03:01:05.196Z,21.05
2023-01-17T03:04:01.122Z,21.48
2023-01-17T03:06:35.971Z,12.88
2023-01-17T03:09:03.755Z,19.15
2023-01-17T03:11:31.148Z,18.98
2023-01-17T03:13:58.704Z,26.17
2023-01-17T03:16:29.056Z,22.65
2023-01-17T03:18:56.223Z,22.35
2023-01-17T03:21:24.390Z,15.30
2023-01-17T03:23:51.692Z,11.38
2023-01-17T03:26:19.240Z,17.08
2023-01-17T03:28:46.466Z,15.95
2023-01-17T03:31:18.188Z,12.30
2023-01-17T03:33:45.225Z,16.25
2023-01-17T03:36:12.616Z,14.35
2023-01-17T03:38:39.722Z,16.20
2023-01-17T03:41:07.316Z,15.23
2023-01-17T03:43:34.486Z,16.58
2023-01-17T03:46:06.673Z,14.68
2023-01-17T03:48:34.271Z,23.00
2023-01-17T03:51:01.345Z,21.70
2023-01-17T03:53:28.479Z,18.13
2023-01-17T03:55:55.526Z,12.43
2023-01-17T03:58:22.591Z,11.95
2023-01-17T04:00:50.018Z,15.05
2023-01-17T04:03:17.114Z,13.65
2023-01-17T04:05:44.147Z,11.93
2023-01-17T04:08:11.310Z,12.57
2023-01-17T04:10:38.358Z,17.23
2023-01-17T04:13:05.542Z,15.25
2023-01-17T04:15:34.218Z,11.82
2023-01-17T04:18:01.783Z,11.23
2023-01-17T04:20:39.657Z,9.88
2023-01-17T04:23:07.550Z,11.10
2023-01-17T04:25:34.808Z,6.18
2023-01-17T04:28:03.905Z,9.50
2023-01-17T04:30:32.124Z,8.90
2023-01-17T04:32:59.283Z,5.95
2023-01-17T04:35:27.170Z,6.30
2023-01-17T04:37:54.253Z,4.43
2023-01-17T04:40:21.316Z,7.22
2023-01-17T04:42:49.272Z,5.75
2023-01-17T04:45:17.947Z,5.03
2023-01-17T04:47:45.020Z,5.47
2023-01-17T04:50:12.706Z,4.38
2023-01-17T04:52:41.809Z,5.47
2023-01-17T04:55:09.328Z,7.35
2023-01-17T04:57:36.924Z,9.25
2023-01-17T05:00:04.761Z,7.88
2023-01-17T05:02:31.932Z,7.70
2023-01-17T05:04:59.092Z,6.55
2023-01-17T05:07:26.190Z,6.40
2023-01-17T05:09:53.228Z,6.82
2023-01-17T05:12:21.318Z,9.57
2023-01-17T05:14:48.304Z,11.20
2023-01-17T05:17:15.281Z,5.75
2023-01-17T05:19:42.330Z,6.55
2023-01-17T05:22:17.509Z,5.20
2023-01-17T05:24:46.004Z,5.35
2023-01-17T05:27:14.409Z,6.30
2023-01-17T05:29:41.913Z,9.10
2023-01-17T05:32:09.329Z,10.35
2023-01-17T05:34:36.428Z,8.73
2023-01-17T05:37:03.480Z,9.07
2023-01-17T05:39:31.540Z,6.07
2023-01-17T05:41:59.720Z,7.13
2023-01-17T05:44:27.991Z,6.57
2023-01-17T05:46:55.629Z,8.68
2023-01-17T05:49:22.785Z,11.98
2023-01-17T05:51:49.899Z,10.73
2023-01-17T05:54:17.299Z,14.68
2023-01-17T05:56:44.570Z,9.10
2023-01-17T05:59:14.102Z,11.95
2023-01-17T06:01:41.366Z,10.10
2023-01-17T06:04:08.506Z,8.18
2023-01-17T06:06:35.529Z,9.65
2023-01-17T06:09:02.650Z,7.35
2023-01-17T06:11:29.967Z,10.95
2023-01-17T06:13:57.007Z,9.48
2023-01-17T06:16:24.105Z,8.93
2023-01-17T06:18:51.255Z,4.65
2023-01-17T06:21:18.295Z,6.60
2023-01-17T06:23:45.284Z,10.43
2023-01-17T06:26:12.478Z,11.90
2023-01-17T06:28:39.563Z,10.95
2023-01-17T06:31:08.616Z,7.68
2023-01-17T06:33:35.788Z,10.27
2023-01-17T06:36:02.924Z,7.28
2023-01-17T06:38:30.508Z,9.93
2023-01-17T06:41:00.664Z,11.55
2023-01-17T06:43:29.262Z,7.90
2023-01-17T06:45:56.539Z,10.25
2023-01-17T06:48:23.544Z,14.68
2023-01-17T06:50:50.595Z,9.52
2023-01-17T06:53:17.877Z,6.28
2023-01-17T06:55:45.061Z,12.63
2023-01-17T06:58:12.170Z,9.55
2023-01-17T07:00:40.955Z,12.75
2023-01-17T07:03:19.080Z,9.25
2023-01-17T07:05:46.430Z,8.20
2023-01-17T07:08:14.051Z,9.85
2023-01-17T07:10:41.335Z,8.93
2023-01-17T07:13:08.497Z,12.38
2023-01-17T07:15:35.920Z,8.50
2023-01-17T07:18:03.864Z,9.88
2023-01-17T07:20:31.378Z,14.98
2023-01-17T07:22:58.587Z,7.88
2023-01-17T07:25:27.754Z,7.32
2023-01-17T07:27:57.767Z,9.57
2023-01-17T07:30:25.329Z,13.50
2023-01-17T07:32:53.800Z,7.32
2023-01-17T07:35:21.788Z,7.30
2023-01-17T07:37:51.875Z,11.05
2023-01-17T07:40:20.408Z,10.23
2023-01-17T07:42:47.843Z,10.15
2023-01-17T07:45:16.505Z,5.88
2023-01-17T07:47:43.847Z,7.07
2023-01-17T07:50:11.700Z,7.63
2023-01-17T07:52:38.974Z,8.48
2023-01-17T07:55:06.831Z,5.63
2023-01-17T07:57:33.969Z,7.90
2023-01-17T08:00:01.188Z,7.88
2023-01-17T08:02:34.273Z,3.25
2023-01-17T08:05:01.291Z,5.63
2023-01-17T08:07:29.481Z,9.98
2023-01-17T08:09:56.525Z,8.43
2023-01-17T08:12:23.616Z,9.02
2023-01-17T08:14:50.789Z,6.65
2023-01-17T08:17:18.732Z,6.88
2023-01-17T08:19:45.869Z,12.20
2023-01-17T08:22:12.926Z,7.63
2023-01-17T08:24:40.009Z,7.35
2023-01-17T08:27:09.174Z,6.65
2023-01-17T08:29:36.482Z,8.02
2023-01-17T08:32:04.241Z,7.65
2023-01-17T08:34:34.014Z,6.25
2023-01-17T08:37:01.137Z,5.07
2023-01-17T08:39:29.018Z,7.00
2023-01-17T08:41:57.665Z,8.10
2023-01-17T08:44:24.819Z,7.90
2023-01-17T08:46:51.929Z,6.07
2023-01-17T08:49:19.641Z,7.82
2023-01-17T08:51:46.654Z,7.25
2023-01-17T08:54:15.480Z,7.93
2023-01-17T08:56:47.190Z,5.47
2023-01-17T08:59:14.361Z,5.10
2023-01-17T09:01:42.113Z,5.05
2023-01-17T09:04:10.064Z,5.05
2023-01-17T09:06:42.915Z,4.10
2023-01-17T09:09:14.026Z,4.95
2023-01-17T09:11:41.203Z,6.70
2023-01-17T09:14:08.335Z,10.10
2023-01-17T09:16:35.471Z,6.70
2023-01-17T09:19:02.667Z,8.50
2023-01-17T09:21:29.714Z,8.77
2023-01-17T09:23:57.084Z,9.00
2023-01-17T09:26:29.355Z,6.97
2023-01-17T09:28:56.655Z,4.93
2023-01-17T09:31:24.473Z,5.20
2023-01-17T09:33:52.328Z,5.65
2023-01-17T09:36:20.257Z,6.50
2023-01-17T09:38:47.861Z,6.20
2023-01-17T09:41:30.320Z,5.15
2023-01-17T09:44:06.131Z,9.65
2023-01-17T09:46:41.511Z,6.15
2023-01-17T09:49:42.545Z,4.38
2023-01-17T09:52:16.587Z,5.93
2023-01-17T09:54:47.329Z,6.20
2023-01-17T09:57:32.774Z,3.90
2023-01-17T10:00:31.954Z,4.63
2023-01-17T10:03:23.825Z,4.93
2023-01-17T10:06:09.303Z,5.07
2023-01-17T10:08:55.503Z,3.85
2023-01-17T10:11:39.304Z,5.05
2023-01-17T10:14:09.034Z,3.95
2023-01-17T10:16:42.362Z,6.90
2023-01-17T10:19:33.800Z,2.78
2023-01-17T10:22:22.996Z,2.80
2023-01-17T10:25:17.529Z,6.00
2023-01-17T10:27:53.316Z,4.25
2023-01-17T10:30:25.560Z,2.60
2023-01-17T10:32:52.638Z,2.25
2023-01-17T10:35:43.888Z,3.75
2023-01-17T10:38:13.316Z,3.58
2023-01-17T10:40:45.040Z,8.50
2023-01-17T10:43:22.253Z,10.18
2023-01-17T10:45:55.108Z,7.53
2023-01-17T10:48:24.914Z,3.88
2023-01-17T10:51:13.118Z,7.90
2023-01-17T10:53:43.228Z,9.43
2023-01-17T10:56:14.444Z,12.52
2023-01-17T10:58:41.511Z,9.15
2023-01-17T11:01:20.925Z,11.98
2023-01-17T11:03:52.143Z,8.75
2023-01-17T11:06:27.594Z,10.20
2023-01-17T11:09:03.267Z,11.70
2023-01-17T11:11:34.061Z,6.07
2023-01-17T11:14:24.363Z,8.50
2023-01-17T11:17:06.469Z,6.50
2023-01-17T11:19:36.659Z,5.70
2023-01-17T11:22:06.470Z,7.07
2023-01-17T11:24:47.486Z,6.25
2023-01-17T11:27:33.401Z,7.10
2023-01-17T11:30:21.177Z,5.70
2023-01-17T11:32:56.040Z,5.75
2023-01-17T11:35:34.551Z,5.07
2023-01-17T11:38:07.966Z,8.40
2023-01-17T11:40:37.695Z,10.52
2023-01-17T11:43:30.491Z,6.60
2023-01-17T11:46:03.677Z,7.00
2023-01-17T11:48:39.025Z,6.57
2023-01-17T11:51:19.974Z,9.93
2023-01-17T11:53:50.308Z,9.10
2023-01-17T11:56:37.363Z,11.63
2023-01-17T11:59:23.941Z,10.65
2023-01-17T12:02:24.274Z,11.40
2023-01-17T12:05:28.885Z,16.88
2023-01-17T12:08:20.866Z,15.75
2023-01-17T12:11:04.830Z,14.98
2023-01-17T12:13:53.235Z,18.25
2023-01-17T12:16:33.997Z,11.30
2023-01-17T12:19:16.645Z,15.25
2023-01-17T12:22:16.863Z,13.27
2023-01-17T12:25:02.227Z,6.72
2023-01-17T12:27:50.706Z,4.97
2023-01-17T12:30:42.166Z,2.85
2023-01-17T12:33:12.380Z,3.92
2023-01-17T12:36:02.618Z,5.25
2023-01-17T12:38:35.095Z,1.83
2023-01-17T12:41:20.972Z,2.78
2023-01-17T12:43:54.339Z,2.75
2023-01-17T12:46:39.440Z,1.63
2023-01-17T12:49:25.000Z,1.42
2023-01-17T12:52:17.705Z,3.30
2023-01-17T12:54:56.327Z,2.33
2023-01-17T12:57:32.331Z,2.63
2023-01-17T13:00:07.527Z,2.97
2023-01-17T13:02:56.957Z,4.63
2023-01-17T13:05:38.863Z,5.57
2023-01-17T13:08:34.611Z,4.57
2023-01-17T13:11:17.397Z,6.53
2023-01-17T13:13:44.643Z,7.35
2023-01-17T13:16:14.326Z,5.40
2023-01-17T13:18:46.715Z,5.88
2023-01-17T13:21:35.886Z,4.15
2023-01-17T13:24:31.873Z,5.32
2023-01-17T13:27:07.530Z,6.95
2023-01-17T13:29:50.034Z,4.63
2023-01-17T13:32:43.012Z,6.60
2023-01-17T13:35:45.342Z,6.70
2023-01-17T13:38:24.509Z,4.88
2023-01-17T13:41:01.746Z,2.70
2023-01-17T13:43:40.044Z,1.95
2023-01-17T13:46:07.798Z,4.38
2023-01-17T13:48:38.562Z,2.92
2023-01-17T13:51:06.644Z,2.17
2023-01-17T13:53:37.189Z,3.58
2023-01-17T13:56:19.811Z,1.60
2023-01-17T13:58:50.612Z,3.92
2023-01-17T14:01:24.205Z,2.63
2023-01-17T14:03:51.517Z,3.03
2023-01-17T14:06:33.401Z,2.53
2023-01-17T14:09:03.546Z,2.03
2023-01-17T14:11:34.490Z,2.33
2023-01-17T14:14:38.913Z,1.65
2023-01-17T14:17:20.894Z,2.22
2023-01-17T14:19:50.323Z,2.47
2023-01-17T14:22:20.308Z,2.83
2023-01-17T14:25:04.205Z,3.13
2023-01-17T14:27:34.892Z,5.55
2023-01-17T14:30:04.686Z,6.63
2023-01-17T14:32:35.666Z,11.20
2023-01-17T14:35:03.648Z,1.98
2023-01-17T14:37:33.385Z,7.03
2023-01-17T14:40:01.588Z,8.05
2023-01-17T14:42:31.808Z,11.23
2023-01-17T14:45:08.899Z,9.32
2023-01-17T14:47:41.703Z,9.35
2023-01-17T14:50:24.608Z,4.15
2023-01-17T14:53:13.568Z,3.75
2023-01-17T14:55:50.746Z,7.95
2023-01-17T14:58:42.335Z,3.53
2023-01-17T15:01:14.786Z,4.35
2023-01-17T15:03:48.657Z,1.63
2023-01-17T15:09:11.403Z,2.65
2023-01-17T15:11:39.655Z,2.33
2023-01-17T15:14:07.583Z,5.45
2023-01-17T15:16:38.787Z,4.22
2023-01-17T15:19:15.739Z,5.70
2023-01-17T15:21:44.233Z,5.03
2023-01-17T15:24:21.107Z,7.20
2023-01-17T15:26:48.832Z,3.00
2023-01-17T15:29:26.631Z,7.50
2023-01-17T15:31:58.590Z,4.72
2023-01-17T15:34:25.582Z,8.73
2023-01-17T15:36:53.658Z,13.27
2023-01-17T15:39:41.020Z,12.68
2023-01-17T15:42:19.044Z,14.73
2023-01-17T15:44:49.152Z,11.52
2023-01-17T15:47:40.487Z,8.98
2023-01-17T15:50:29.043Z,14.32
2023-01-17T15:53:01.884Z,11.27
2023-01-17T15:55:39.773Z,5.53
2023-01-17T15:58:28.031Z,7.43
2023-01-17T16:00:55.823Z,11.68
2023-01-17T16:03:30.560Z,6.28
2023-01-17T16:06:00.506Z,4.30
2023-01-17T16:08:33.270Z,11.40
2023-01-17T16:11:02.851Z,6.78
2023-01-17T16:13:31.816Z,5.35
2023-01-17T16:16:12.221Z,5.22
2023-01-17T16:18:40.648Z,5.13
2023-01-17T16:21:19.062Z,4.13
2023-01-17T16:23:47.028Z,4.38
2023-01-17T16:26:14.409Z,4.88
2023-01-17T16:28:41.540Z,3.10
2023-01-17T16:31:09.189Z,3.03
2023-01-17T16:33:36.264Z,4.05
2023-01-17T16:36:03.313Z,2.22
2023-01-17T16:38:32.445Z,2.47
2023-01-17T16:40:59.521Z,2.50
2023-01-17T16:43:26.623Z,3.00
2023-01-17T16:45:54.252Z,3.33
2023-01-17T16:48:22.210Z,4.38
2023-01-17T16:50:52.520Z,5.30
2023-01-17T16:53:25.636Z,3.58
2023-01-17T16:55:57.777Z,4.75
2023-01-17T16:58:25.489Z,2.08
2023-01-17T17:00:53.110Z,4.30
2023-01-17T17:03:21.439Z,3.95
2023-01-17T17:06:00.743Z,7.30
2023-01-17T17:08:31.563Z,2.17
2023-01-17T17:11:13.720Z,3.72
2023-01-17T17:13:42.650Z,3.20
2023-01-17T17:16:15.334Z,7.40
2023-01-17T17:18:43.227Z,1.95
2023-01-17T17:21:10.402Z,4.40
2023-01-17T17:23:37.584Z,4.30
2023-01-17T17:26:04.784Z,3.13
2023-01-17T17:28:32.025Z,3.72
2023-01-17T17:31:13.110Z,3.92
2023-01-17T17:33:40.238Z,8.27
2023-01-17T17:36:10.385Z,5.07
2023-01-17T17:38:51.286Z,7.05
2023-01-17T17:41:21.260Z,5.43
2023-01-17T17:43:48.947Z,2.10
2023-01-17T17:46:16.198Z,5.80
2023-01-17T17:48:43.217Z,3.15
2023-01-17T17:51:24.768Z,3.45
2023-01-17T17:53:55.557Z,3.08
2023-01-17T17:56:23.525Z,2.15
2023-01-17T17:58:50.797Z,4.22
2023-01-17T18:01:17.928Z,3.20
2023-01-17T18:03:45.238Z,3.45
2023-01-17T18:06:13.593Z,4.22
2023-01-17T18:08:40.816Z,3.33
2023-01-17T18:11:14.288Z,5.20
2023-01-17T18:13:43.061Z,3.67
2023-01-17T18:16:13.560Z,3.72
2023-01-17T18:18:45.299Z,3.58
2023-01-17T18:21:17.975Z,3.78
2023-01-17T18:23:45.399Z,2.75
2023-01-17T18:26:23.776Z,5.10
2023-01-17T18:28:52.401Z,3.47
2023-01-17T18:31:19.633Z,3.22
2023-01-17T18:33:46.840Z,3.45
2023-01-17T18:36:14.885Z,2.70
2023-01-17T18:38:44.925Z,3.28
2023-01-17T18:41:14.406Z,4.20
2023-01-17T18:43:42.219Z,6.10
2023-01-17T18:46:11.043Z,4.50
2023-01-17T18:48:39.197Z,5.82
2023-01-17T18:51:11.672Z,4.13
2023-01-17T18:53:40.452Z,5.50
2023-01-17T18:56:10.526Z,4.22
2023-01-17T18:58:41.267Z,4.10
2023-01-17T19:01:18.764Z,5.22
2023-01-17T19:03:48.108Z,4.15
2023-01-17T19:06:18.574Z,2.83
2023-01-17T19:08:45.709Z,5.38
2023-01-17T19:11:13.175Z,3.80
2023-01-17T19:13:42.177Z,4.32
2023-01-17T19:16:14.021Z,6.53
2023-01-17T19:18:41.197Z,6.78
2023-01-17T19:21:13.461Z,6.15
2023-01-17T19:23:40.976Z,4.07
2023-01-17T19:26:09.245Z,2.55
2023-01-17T19:28:40.894Z,3.15
2023-01-17T19:31:08.914Z,4.43
2023-01-17T19:33:38.146Z,5.00
2023-01-17T19:36:09.173Z,4.70
2023-01-17T19:38:37.787Z,3.38
2023-01-17T19:41:14.879Z,3.15
2023-01-17T19:43:42.918Z,3.15
2023-01-17T19:46:11.949Z,6.88
2023-01-17T19:48:40.242Z,4.30
2023-01-17T19:51:12.935Z,4.28
2023-01-17T19:53:41.265Z,7.43
2023-01-17T19:56:11.071Z,6.10
2023-01-17T19:58:38.851Z,6.68
2023-01-17T20:01:11.472Z,8.43
2023-01-17T20:03:39.068Z,12.13
2023-01-17T20:06:07.314Z,11.30
2023-01-17T20:08:35.716Z,5.30
2023-01-17T20:11:08.461Z,7.43
2023-01-17T20:13:35.538Z,6.07
2023-01-17T20:16:07.370Z,3.97
2023-01-17T20:18:35.910Z,2.42
2023-01-17T20:21:08.865Z,3.53
2023-01-17T20:23:43.512Z,5.17
2023-01-17T20:26:11.641Z,2.88
2023-01-17T20:28:40.802Z,4.07
2023-01-17T20:31:16.243Z,5.25
2023-01-17T20:33:44.918Z,3.95
2023-01-17T20:36:15.221Z,6.07
2023-01-17T20:38:46.266Z,3.60
2023-01-17T20:41:16.235Z,4.03
2023-01-17T20:43:45.040Z,2.78
2023-01-17T20:46:12.717Z,3.92
2023-01-17T20:48:48.328Z,3.22
2023-01-17T20:51:16.131Z,3.65
2023-01-17T20:53:44.994Z,2.20
2023-01-17T20:56:13.630Z,4.95
2023-01-17T20:58:41.381Z,1.83
2023-01-17T21:01:10.614Z,3.22
2023-01-17T21:03:38.791Z,4.03
2023-01-17T21:06:09.135Z,2.63
2023-01-17T21:08:38.720Z,1.90
2023-01-17T21:11:07.252Z,5.40
2023-01-17T21:13:34.685Z,4.30
2023-01-17T21:16:02.745Z,4.25
2023-01-17T21:18:32.134Z,4.63
2023-01-17T21:21:10.685Z,5.00
2023-01-17T21:23:40.552Z,2.92
2023-01-17T21:26:12.317Z,2.78
2023-01-17T21:28:41.508Z,3.00
2023-01-17T21:31:19.841Z,1.88
2023-01-17T21:33:47.919Z,3.08
2023-01-17T21:36:15.074Z,3.72
2023-01-17T21:38:42.302Z,6.47
2023-01-17T21:41:09.671Z,3.88
2023-01-17T21:43:36.717Z,3.80
2023-01-17T21:46:05.473Z,3.45
2023-01-17T21:48:32.761Z,4.65
2023-01-17T21:51:07.978Z,3.38
2023-01-17T21:53:37.296Z,3.10
2023-01-17T21:56:24.363Z,5.95
2023-01-17T21:58:55.184Z,2.08
2023-01-17T22:01:24.375Z,7.65
2023-01-17T22:03:59.673Z,3.15
2023-01-17T22:06:28.973Z,3.60
2023-01-17T22:08:56.479Z,4.18
2023-01-17T22:11:26.131Z,3.17
2023-01-17T22:13:53.295Z,3.05
2023-01-17T22:16:23.580Z,2.75
2023-01-17T22:18:51.768Z,7.40
2023-01-17T22:21:21.515Z,3.88
2023-01-17T22:23:50.685Z,1.98
2023-01-17T22:26:18.697Z,3.60
2023-01-17T22:28:45.940Z,1.98
2023-01-17T22:31:22.789Z,2.35
2023-01-17T22:33:55.374Z,3.00
2023-01-17T22:36:22.959Z,2.33
2023-01-17T22:38:50.901Z,2.75
2023-01-17T22:41:23.724Z,2.17
2023-01-17T22:43:53.373Z,4.95
2023-01-17T22:46:25.189Z,5.50
2023-01-17T22:48:53.861Z,5.78
2023-01-17T22:51:22.589Z,1.70
2023-01-17T22:53:52.454Z,2.40
2023-01-17T22:56:22.330Z,5.07
2023-01-17T22:58:50.281Z,5.55
2023-01-17T23:01:23.651Z,2.25
2023-01-17T23:03:53.198Z,3.85
2023-01-17T23:06:28.681Z,2.90
2023-01-17T23:08:58.461Z,2.53
2023-01-17T23:11:41.312Z,4.55
2023-01-17T23:14:26.685Z,4.28
2023-01-17T23:17:19.265Z,3.45
2023-01-17T23:19:52.336Z,3.45
2023-01-17T23:22:27.092Z,5.17
2023-01-17T23:24:55.256Z,7.28
2023-01-17T23:27:45.055Z,4.75
2023-01-17T23:30:14.497Z,4.22
2023-01-17T23:32:52.263Z,0.73
2023-01-17T23:35:22.187Z,2.05
2023-01-17T23:38:08.051Z,1.20
2023-01-17T23:40:36.727Z,1.13
2023-01-17T23:43:22.982Z,0.90
2023-01-17T23:45:51.858Z,2.33
2023-01-17T23:48:19.840Z,2.90
2023-01-17T23:50:48.503Z,1.85
2023-01-17T23:53:24.799Z,2.45
2023-01-17T23:55:54.623Z,2.03
2023-01-17T23:58:24.889Z,2.30
